Terminal Aerodrome Forecast
Issued by NWS Cleveland, OH

Home | Current Version | Previous Version | Text Only | Print | Product List | Glossary On
Versions: 1 2 3 4 5 6 7 8 9 10 11 12 13 14
000
FTUS41 KCLE 252324
TAFYNG
TAF
KYNG 252324Z 2600/2624 06008KT P6SM SCT035 BKN050
     FM260700 07006KT P6SM SCT010 BKN025
      TEMPO 2609/2613 OVC015
     FM261600 15010KT P6SM VCSH SCT020 BKN040
     FM262100 16010KT 4SM -SHRA OVC025 PROB30 2621/2624 2SM -TSRA
      OVC010CB=

USA.gov is the U.S. government's official web portal to all federal, state and local government web resources and services.